Time;durP1;ratioP1;P1;durP2;ratioP2;P2;SDS_P1;SDS_P2;PMS_P1;PMS_P2;Temp;Humidity;BMP_temperature;BMP_pressure;BME280_temperature;BME280_humidity;BME280_pressure;Samples;Min_cycle;Max_cycle;Signal;HPM_P1;HPM_P2
2023/01/20 00:01:31;;;;;;;;;;;20.80;39.60;;;;;;5074132;28;19930;-64
2023/01/20 00:03:59;;;;;;;;;;;20.80;39.60;;;;;;5075110;28;20015;-65
2023/01/20 00:06:29;;;;;;;;;;;20.80;39.60;;;;;;5075421;28;19927;-64
2023/01/20 00:08:59;;;;;;;;;;;20.80;39.50;;;;;;5074736;28;20372;-64
2023/01/20 00:11:27;;;;;;;;;;;20.80;39.50;;;;;;5074650;28;19971;-64
2023/01/20 00:13:54;;;;;;;;;;;20.80;39.50;;;;;;5057515;28;19921;-64
2023/01/20 00:16:22;;;;;;;;;;;20.80;39.50;;;;;;5075340;28;19925;-64
2023/01/20 00:18:49;;;;;;;;;;;20.80;39.50;;;;;;5074690;28;19921;-64
2023/01/20 00:21:16;;;;;;;;;;;20.80;39.70;;;;;;5074852;28;19920;-64
2023/01/20 00:23:44;;;;;;;;;;;20.80;39.50;;;;;;5072653;28;19921;-64
2023/01/20 00:26:13;;;;;;;;;;;20.80;39.40;;;;;;5075032;28;19947;-64
2023/01/20 00:28:39;;;;;;;;;;;20.80;39.40;;;;;;5074993;28;19956;-64
2023/01/20 00:31:14;;;;;;;;;;;20.80;39.40;;;;;;5074173;28;20019;-64
2023/01/20 00:33:41;;;;;;;;;;;20.80;39.40;;;;;;5073981;28;19932;-64
2023/01/20 00:36:09;;;;;;;;;;;20.80;39.40;;;;;;5074310;28;19956;-64
2023/01/20 00:38:36;;;;;;;;;;;20.80;39.40;;;;;;5074054;28;20352;-64
2023/01/20 00:41:03;;;;;;;;;;;20.80;39.40;;;;;;5074762;28;19927;-65
2023/01/20 00:43:30;;;;;;;;;;;20.80;39.40;;;;;;5074162;28;19920;-64
2023/01/20 00:45:57;;;;;;;;;;;20.80;39.40;;;;;;5074239;28;19974;-64
2023/01/20 00:48:24;;;;;;;;;;;20.80;39.30;;;;;;5074126;28;20003;-64
2023/01/20 00:50:51;;;;;;;;;;;20.80;39.30;;;;;;5073979;28;19926;-64
2023/01/20 00:53:18;;;;;;;;;;;20.80;39.30;;;;;;5073956;28;19927;-64
2023/01/20 00:55:45;;;;;;;;;;;20.80;39.30;;;;;;5074086;28;19927;-64
2023/01/20 00:58:12;;;;;;;;;;;20.80;39.30;;;;;;5073951;28;20380;-64
2023/01/20 01:00:39;;;;;;;;;;;20.70;39.30;;;;;;5073946;28;19971;-64
2023/01/20 01:03:06;;;;;;;;;;;20.70;39.30;;;;;;5073949;28;19920;-64
2023/01/20 01:05:33;;;;;;;;;;;20.80;39.30;;;;;;5072950;28;19920;-64
2023/01/20 01:08:00;;;;;;;;;;;20.80;39.30;;;;;;5073560;28;19928;-64
2023/01/20 01:10:27;;;;;;;;;;;20.80;39.30;;;;;;5073995;28;19971;-64
2023/01/20 01:12:54;;;;;;;;;;;20.80;39.30;;;;;;5073926;28;20006;-64
2023/01/20 01:15:21;;;;;;;;;;;20.80;39.30;;;;;;5073616;28;19920;-64
2023/01/20 01:17:48;;;;;;;;;;;20.80;39.20;;;;;;5072362;28;19955;-64
2023/01/20 01:20:15;;;;;;;;;;;20.80;39.20;;;;;;5073860;28;20006;-64
2023/01/20 01:22:42;;;;;;;;;;;20.80;39.20;;;;;;5073588;28;20435;-64
2023/01/20 01:25:09;;;;;;;;;;;20.80;39.20;;;;;;5073232;28;20364;-64
2023/01/20 01:27:36;;;;;;;;;;;20.80;39.20;;;;;;5073972;28;19920;-64
2023/01/20 01:30:03;;;;;;;;;;;20.80;39.20;;;;;;5073394;28;19966;-64
2023/01/20 01:32:30;;;;;;;;;;;20.80;39.10;;;;;;5073429;28;20019;-64
2023/01/20 01:34:57;;;;;;;;;;;20.80;39.10;;;;;;5055794;28;19969;-64
2023/01/20 01:37:25;;;;;;;;;;;20.80;39.10;;;;;;5073952;28;20002;-64
2023/01/20 01:39:52;;;;;;;;;;;20.80;39.10;;;;;;5072195;28;19924;-64
2023/01/20 01:42:22;;;;;;;;;;;20.80;39.10;;;;;;5073297;28;19920;-64
2023/01/20 01:45:09;;;;;;;;;;;20.80;39.10;;;;;;5073953;28;20023;-64
2023/01/20 01:47:42;;;;;;;;;;;20.80;39.10;;;;;;5073602;28;19920;-64
2023/01/20 01:50:12;;;;;;;;;;;20.80;39.10;;;;;;5073231;28;19920;-64
2023/01/20 01:52:41;;;;;;;;;;;20.70;39.00;;;;;;5073210;28;20011;-64
2023/01/20 01:55:08;;;;;;;;;;;20.80;39.00;;;;;;5073485;28;19927;-64
2023/01/20 01:57:35;;;;;;;;;;;20.80;39.00;;;;;;5073041;28;20003;-64
2023/01/20 02:00:05;;;;;;;;;;;20.80;39.00;;;;;;5073152;28;20015;-64
2023/01/20 02:02:34;;;;;;;;;;;20.70;38.90;;;;;;5072032;28;19972;-64
2023/01/20 02:05:02;;;;;;;;;;;20.70;38.90;;;;;;5055677;28;20369;-64
2023/01/20 02:07:31;;;;;;;;;;;20.70;38.90;;;;;;5073102;28;20019;-64
2023/01/20 02:09:59;;;;;;;;;;;20.70;38.90;;;;;;5073516;28;19926;-64
2023/01/20 02:12:26;;;;;;;;;;;20.70;38.90;;;;;;5072944;28;19920;-64
2023/01/20 02:14:54;;;;;;;;;;;20.70;38.90;;;;;;5072008;28;19924;-64
2023/01/20 02:17:27;;;;;;;;;;;20.70;38.90;;;;;;5072892;28;20003;-63
2023/01/20 02:20:02;;;;;;;;;;;20.70;38.90;;;;;;5072208;28;19921;-64
2023/01/20 02:22:36;;;;;;;;;;;20.70;38.90;;;;;;5073390;28;20355;-64
2023/01/20 02:25:23;;;;;;;;;;;20.70;38.90;;;;;;5072841;28;19921;-64
2023/01/20 02:28:10;;;;;;;;;;;20.70;38.90;;;;;;5072685;28;19974;-64
2023/01/20 02:30:57;;;;;;;;;;;20.70;38.90;;;;;;5072453;28;19920;-64
2023/01/20 02:33:37;;;;;;;;;;;20.70;38.90;;;;;;5058198;28;19921;-64
2023/01/20 02:36:08;;;;;;;;;;;20.70;38.90;;;;;;5073463;28;19927;-64
2023/01/20 02:38:42;;;;;;;;;;;20.70;38.90;;;;;;5072710;28;19967;-64
2023/01/20 02:41:16;;;;;;;;;;;20.70;38.90;;;;;;5072693;28;20344;-64
2023/01/20 02:43:49;;;;;;;;;;;20.70;38.90;;;;;;5071573;28;19931;-64
2023/01/20 02:46:22;;;;;;;;;;;20.70;38.80;;;;;;5056954;28;19927;-64
2023/01/20 02:48:52;;;;;;;;;;;20.70;38.80;;;;;;5076121;28;20020;-64
2023/01/20 02:51:23;;;;;;;;;;;20.70;38.80;;;;;;5076594;28;20333;-64
2023/01/20 02:53:55;;;;;;;;;;;20.60;38.70;;;;;;5084632;28;20431;-64
2023/01/20 02:56:25;;;;;;;;;;;20.60;38.70;;;;;;5097112;28;19927;-64
2023/01/20 02:58:55;;;;;;;;;;;20.70;38.80;;;;;;5096266;28;19946;-64
2023/01/20 03:01:24;;;;;;;;;;;20.70;38.80;;;;;;5075979;28;20455;-64
2023/01/20 03:03:53;;;;;;;;;;;20.70;38.80;;;;;;5074509;28;19920;-64
2023/01/20 03:06:21;;;;;;;;;;;20.70;38.80;;;;;;5058795;28;19920;-64
2023/01/20 03:08:50;;;;;;;;;;;20.70;38.80;;;;;;5058395;28;19963;-64
2023/01/20 03:11:18;;;;;;;;;;;20.70;38.80;;;;;;5076127;28;19971;-64
2023/01/20 03:13:52;;;;;;;;;;;20.60;38.70;;;;;;5076083;28;19920;-64
2023/01/20 03:16:23;;;;;;;;;;;20.70;38.80;;;;;;5075961;28;20416;-64
2023/01/20 03:18:50;;;;;;;;;;;20.70;38.80;;;;;;5076374;28;19920;-64
2023/01/20 03:21:18;;;;;;;;;;;20.70;38.80;;;;;;5075602;28;19921;-64
2023/01/20 03:23:46;;;;;;;;;;;20.70;38.80;;;;;;5076190;28;19920;-64
2023/01/20 03:26:14;;;;;;;;;;;20.70;38.70;;;;;;5075247;28;19975;-64
2023/01/20 03:28:43;;;;;;;;;;;20.70;38.70;;;;;;5076103;28;19920;-64
2023/01/20 03:31:21;;;;;;;;;;;20.70;38.70;;;;;;5057983;28;19959;-64
2023/01/20 03:33:50;;;;;;;;;;;20.70;38.70;;;;;;5075677;28;19921;-64
2023/01/20 03:36:17;;;;;;;;;;;20.70;38.60;;;;;;5074602;28;20003;-64
2023/01/20 03:38:45;;;;;;;;;;;20.70;38.60;;;;;;5075206;28;20011;-64
2023/01/20 03:41:31;;;;;;;;;;;20.70;38.60;;;;;;5075876;28;20003;-64
2023/01/20 03:44:18;;;;;;;;;;;20.70;38.60;;;;;;5075877;28;19926;-64
2023/01/20 03:46:48;;;;;;;;;;;20.70;38.60;;;;;;5075849;28;20007;-64
2023/01/20 03:49:25;;;;;;;;;;;20.70;38.60;;;;;;5075778;28;20300;-64
2023/01/20 03:52:01;;;;;;;;;;;20.70;38.60;;;;;;5075073;28;20001;-64
2023/01/20 03:54:32;;;;;;;;;;;20.70;38.60;;;;;;5073826;28;20351;-64
2023/01/20 03:57:05;;;;;;;;;;;20.70;38.50;;;;;;5075016;28;20415;-64
2023/01/20 03:59:33;;;;;;;;;;;20.60;38.50;;;;;;5074650;28;19925;-64
2023/01/20 04:02:02;;;;;;;;;;;20.70;38.50;;;;;;5074973;28;19920;-64
2023/01/20 04:04:32;;;;;;;;;;;20.70;38.50;;;;;;5074784;28;19920;-64
2023/01/20 04:06:59;;;;;;;;;;;20.70;38.50;;;;;;5075054;28;20367;-64
2023/01/20 04:09:28;;;;;;;;;;;20.70;38.50;;;;;;5074025;28;19920;-64
2023/01/20 04:11:55;;;;;;;;;;;20.60;38.40;;;;;;5056906;28;19920;-64
2023/01/20 04:14:22;;;;;;;;;;;20.60;38.40;;;;;;5074765;28;20007;-64
2023/01/20 04:16:51;;;;;;;;;;;20.60;38.40;;;;;;5074776;28;19974;-64
2023/01/20 04:19:19;;;;;;;;;;;20.60;38.40;;;;;;5074621;28;19966;-64
2023/01/20 04:21:52;;;;;;;;;;;20.60;38.40;;;;;;5074990;28;19990;-64
2023/01/20 04:24:25;;;;;;;;;;;20.60;38.40;;;;;;5074174;28;19971;-64
2023/01/20 04:26:52;;;;;;;;;;;20.60;38.40;;;;;;5074410;28;19998;-64
2023/01/20 04:29:19;;;;;;;;;;;20.60;38.40;;;;;;5074332;28;19920;-64
2023/01/20 04:31:46;;;;;;;;;;;20.60;38.40;;;;;;5074474;28;19924;-64
2023/01/20 04:34:16;;;;;;;;;;;20.60;38.40;;;;;;5073279;28;19978;-64
2023/01/20 04:36:43;;;;;;;;;;;20.60;38.40;;;;;;5073665;28;19960;-64
2023/01/20 04:39:11;;;;;;;;;;;20.60;38.40;;;;;;5073607;28;19920;-64
2023/01/20 04:41:38;;;;;;;;;;;20.60;38.40;;;;;;5072436;28;20098;-64
2023/01/20 04:44:05;;;;;;;;;;;20.60;38.40;;;;;;5074020;28;19927;-64
2023/01/20 04:46:32;;;;;;;;;;;20.60;38.40;;;;;;5073729;28;19920;-64
2023/01/20 04:49:02;;;;;;;;;;;20.60;38.40;;;;;;5073444;28;19975;-64
2023/01/20 04:51:31;;;;;;;;;;;20.60;38.40;;;;;;5072939;28;20010;-64
2023/01/20 04:53:58;;;;;;;;;;;20.60;38.40;;;;;;5072921;28;19935;-64
2023/01/20 04:56:25;;;;;;;;;;;20.60;38.30;;;;;;5072901;28;19920;-64
2023/01/20 04:58:52;;;;;;;;;;;20.60;38.30;;;;;;5073746;28;20403;-64
2023/01/20 05:01:19;;;;;;;;;;;20.60;38.30;;;;;;5072443;28;19927;-64
2023/01/20 05:03:46;;;;;;;;;;;20.60;38.30;;;;;;5072471;28;19927;-64
2023/01/20 05:06:13;;;;;;;;;;;20.60;38.30;;;;;;5072442;28;19921;-64
2023/01/20 05:08:40;;;;;;;;;;;20.60;38.30;;;;;;5055007;28;19927;-64
2023/01/20 05:11:07;;;;;;;;;;;20.60;38.30;;;;;;5073493;28;19927;-64
2023/01/20 05:13:37;;;;;;;;;;;20.60;38.30;;;;;;5073589;28;20015;-64
2023/01/20 05:16:05;;;;;;;;;;;20.50;38.20;;;;;;5071207;28;20425;-64
2023/01/20 05:18:33;;;;;;;;;;;20.60;38.30;;;;;;5058544;28;19928;-64
2023/01/20 05:21:00;;;;;;;;;;;20.60;38.30;;;;;;5071202;28;19920;-64
2023/01/20 05:23:26;;;;;;;;;;;20.60;38.30;;;;;;5068926;28;19925;-64
2023/01/20 05:25:53;;;;;;;;;;;20.60;38.30;;;;;;5068815;28;19929;-64
2023/01/20 05:28:21;;;;;;;;;;;20.50;38.30;;;;;;5069268;28;20281;-63
2023/01/20 05:30:48;;;;;;;;;;;20.60;38.30;;;;;;5075859;28;19939;-64
2023/01/20 05:33:16;;;;;;;;;;;20.60;38.30;;;;;;5071695;28;19921;-64
2023/01/20 05:35:43;;;;;;;;;;;20.60;38.30;;;;;;5066765;28;19986;-64
2023/01/20 05:38:10;;;;;;;;;;;20.60;38.10;;;;;;5072151;28;19927;-64
2023/01/20 05:40:37;;;;;;;;;;;20.60;37.90;;;;;;5071496;28;19967;-64
2023/01/20 05:43:04;;;;;;;;;;;20.60;37.80;;;;;;5071725;28;19927;-64
2023/01/20 05:45:31;;;;;;;;;;;20.60;37.80;;;;;;5071394;28;20007;-64
2023/01/20 05:47:58;;;;;;;;;;;20.60;37.80;;;;;;5073390;28;19921;-64
2023/01/20 05:50:26;;;;;;;;;;;20.50;37.70;;;;;;5072905;28;19920;-64
2023/01/20 05:52:53;;;;;;;;;;;20.50;37.70;;;;;;5066895;28;20010;-65
2023/01/20 05:55:20;;;;;;;;;;;20.50;37.70;;;;;;5072546;28;20418;-64
2023/01/20 05:57:47;;;;;;;;;;;20.50;37.60;;;;;;5073021;28;20275;-64
2023/01/20 06:00:17;;;;;;;;;;;20.50;37.60;;;;;;5072748;28;19924;-64
2023/01/20 06:02:44;;;;;;;;;;;20.50;37.50;;;;;;5073193;28;19920;-62
2023/01/20 06:05:11;;;;;;;;;;;20.60;37.50;;;;;;5072646;28;19924;-64
2023/01/20 06:07:39;;;;;;;;;;;20.60;37.40;;;;;;5072665;28;19942;-64
2023/01/20 06:10:07;;;;;;;;;;;20.60;37.50;;;;;;5072224;28;19921;-65
2023/01/20 06:12:34;;;;;;;;;;;20.60;37.50;;;;;;5072589;28;20090;-64
2023/01/20 06:15:01;;;;;;;;;;;20.60;37.40;;;;;;5072825;28;19972;-67
2023/01/20 06:17:28;;;;;;;;;;;20.60;37.40;;;;;;5072557;28;20272;-64
2023/01/20 06:19:55;;;;;;;;;;;20.60;37.40;;;;;;5068242;28;20015;-65
2023/01/20 06:22:22;;;;;;;;;;;20.70;37.40;;;;;;5065735;28;20011;-61
2023/01/20 06:24:49;;;;;;;;;;;20.70;37.40;;;;;;5063984;28;20301;-61
2023/01/20 06:27:17;;;;;;;;;;;20.70;37.40;;;;;;5058147;28;20015;-69
2023/01/20 06:29:44;;;;;;;;;;;20.70;37.30;;;;;;5070980;28;20003;-68
2023/01/20 06:32:11;;;;;;;;;;;20.80;37.40;;;;;;5070126;28;19927;-69
2023/01/20 06:34:38;;;;;;;;;;;20.80;37.30;;;;;;5071978;28;19982;-67
2023/01/20 06:37:05;;;;;;;;;;;20.80;37.10;;;;;;5069294;28;19920;-69
2023/01/20 06:39:32;;;;;;;;;;;20.90;37.20;;;;;;5067019;28;19924;-67
2023/01/20 06:41:59;;;;;;;;;;;20.90;37.10;;;;;;5068220;28;19928;-66
2023/01/20 06:44:27;;;;;;;;;;;21.00;37.10;;;;;;5062414;28;19920;-66
2023/01/20 06:46:56;;;;;;;;;;;21.00;37.10;;;;;;5064146;28;19924;-65
2023/01/20 06:49:23;;;;;;;;;;;21.00;37.10;;;;;;5062199;28;19928;-67
2023/01/20 06:51:50;;;;;;;;;;;21.00;37.10;;;;;;5064729;28;20638;-66
2023/01/20 06:54:17;;;;;;;;;;;21.00;37.10;;;;;;5069094;28;20015;-66
2023/01/20 06:56:44;;;;;;;;;;;21.10;37.10;;;;;;5062684;28;19925;-67
2023/01/20 06:59:12;;;;;;;;;;;21.10;37.00;;;;;;5065887;28;19963;-67
2023/01/20 07:01:39;;;;;;;;;;;21.10;37.00;;;;;;5068418;28;19986;-67
2023/01/20 07:04:07;;;;;;;;;;;21.20;37.00;;;;;;5062647;28;19982;-67
2023/01/20 07:06:38;;;;;;;;;;;21.20;36.90;;;;;;5060232;28;19924;-67
2023/01/20 07:09:06;;;;;;;;;;;21.20;37.20;;;;;;5057921;28;19929;-70
2023/01/20 07:11:36;;;;;;;;;;;21.30;37.70;;;;;;5063940;28;20320;-69
2023/01/20 07:14:04;;;;;;;;;;;21.30;38.00;;;;;;5063165;28;20319;-69
2023/01/20 07:16:31;;;;;;;;;;;21.40;38.10;;;;;;5061829;28;19935;-68
2023/01/20 07:18:59;;;;;;;;;;;21.40;38.40;;;;;;5058502;28;19931;-69
2023/01/20 07:21:26;;;;;;;;;;;21.50;38.60;;;;;;5064424;28;20006;-69
2023/01/20 07:23:53;;;;;;;;;;;21.50;38.70;;;;;;5066969;28;20051;-64
2023/01/20 07:26:21;;;;;;;;;;;21.60;38.60;;;;;;5069571;28;19920;-67
2023/01/20 07:28:48;;;;;;;;;;;21.60;38.50;;;;;;5063082;28;19928;-70
2023/01/20 07:31:16;;;;;;;;;;;21.70;38.40;;;;;;5059958;28;20026;-72
2023/01/20 07:33:44;;;;;;;;;;;21.70;38.20;;;;;;5061902;28;20441;-66
2023/01/20 07:36:11;;;;;;;;;;;21.70;38.70;;;;;;5062368;28;19920;-70
2023/01/20 07:38:38;;;;;;;;;;;21.80;38.10;;;;;;5057518;28;20343;-64
2023/01/20 07:41:09;;;;;;;;;;;21.80;38.00;;;;;;5063767;28;19928;-64
2023/01/20 07:43:36;;;;;;;;;;;21.80;37.60;;;;;;5045376;28;19935;-64
2023/01/20 07:46:03;;;;;;;;;;;21.90;37.30;;;;;;5062826;28;19927;-65
2023/01/20 07:48:31;;;;;;;;;;;21.90;37.10;;;;;;5058684;28;19927;-66
2023/01/20 07:51:06;;;;;;;;;;;21.90;37.00;;;;;;5059299;28;19924;-66
2023/01/20 07:53:38;;;;;;;;;;;22.00;37.00;;;;;;5062981;28;19935;-65
2023/01/20 07:56:06;;;;;;;;;;;22.00;37.00;;;;;;5065288;28;19945;-68
2023/01/20 07:58:34;;;;;;;;;;;22.00;37.30;;;;;;5062230;28;19928;-72
2023/01/20 08:01:08;;;;;;;;;;;22.10;37.40;;;;;;5064972;28;20288;-71
2023/01/20 08:03:35;;;;;;;;;;;22.10;37.40;;;;;;5062455;28;19932;-66
2023/01/20 08:06:07;;;;;;;;;;;22.10;37.40;;;;;;5062563;28;20038;-74
2023/01/20 08:08:34;;;;;;;;;;;22.20;37.50;;;;;;5065922;28;19964;-68
2023/01/20 08:11:01;;;;;;;;;;;22.20;37.40;;;;;;5061300;28;19930;-71
2023/01/20 08:13:29;;;;;;;;;;;22.20;37.40;;;;;;5063818;28;19920;-74
2023/01/20 08:16:01;;;;;;;;;;;22.20;37.40;;;;;;5063850;28;19924;-70
2023/01/20 08:18:28;;;;;;;;;;;22.30;37.40;;;;;;5063034;28;20398;-71
2023/01/20 08:20:55;;;;;;;;;;;22.30;37.40;;;;;;5060589;28;19928;-76
2023/01/20 08:23:22;;;;;;;;;;;22.30;37.50;;;;;;5061958;28;19932;-70
2023/01/20 08:25:57;;;;;;;;;;;22.40;37.40;;;;;;5068334;28;19920;-77
2023/01/20 08:28:24;;;;;;;;;;;22.40;37.40;;;;;;5063902;28;19974;-74
2023/01/20 08:30:51;;;;;;;;;;;22.40;37.40;;;;;;5061364;28;20027;-73
2023/01/20 08:33:19;;;;;;;;;;;22.50;37.50;;;;;;5060778;28;19928;-74
2023/01/20 08:35:46;;;;;;;;;;;22.50;37.40;;;;;;5057681;28;19930;-69
2023/01/20 08:38:14;;;;;;;;;;;22.50;37.30;;;;;;5060103;28;19928;-69
2023/01/20 08:40:41;;;;;;;;;;;22.50;37.20;;;;;;5062706;28;19928;-71
2023/01/20 08:43:08;;;;;;;;;;;22.50;37.20;;;;;;5060447;28;19925;-69
2023/01/20 08:45:35;;;;;;;;;;;22.60;36.90;;;;;;5068272;28;19971;-69
2023/01/20 08:48:02;;;;;;;;;;;22.60;36.80;;;;;;5059215;28;20351;-71
2023/01/20 08:50:29;;;;;;;;;;;22.60;36.90;;;;;;5065696;28;19929;-75
2023/01/20 08:52:56;;;;;;;;;;;22.60;36.90;;;;;;5061377;28;19929;-75
2023/01/20 08:55:23;;;;;;;;;;;22.70;37.10;;;;;;5065329;28;20392;-74
2023/01/20 08:57:50;;;;;;;;;;;22.70;37.10;;;;;;5063134;28;20431;-68
2023/01/20 09:00:18;;;;;;;;;;;22.70;37.00;;;;;;5059289;28;19934;-67
2023/01/20 09:02:45;;;;;;;;;;;22.70;36.90;;;;;;5061871;28;19928;-70
2023/01/20 09:05:13;;;;;;;;;;;22.70;36.60;;;;;;5059680;28;19924;-69
2023/01/20 09:07:40;;;;;;;;;;;22.80;36.40;;;;;;5058797;28;19932;-71
2023/01/20 09:10:08;;;;;;;;;;;22.70;36.30;;;;;;5061667;28;20758;-71
2023/01/20 09:12:36;;;;;;;;;;;22.80;36.20;;;;;;5059732;28;20007;-69
2023/01/20 09:15:06;;;;;;;;;;;22.80;36.00;;;;;;5064829;28;19928;-72
2023/01/20 09:17:34;;;;;;;;;;;22.80;36.00;;;;;;5066303;28;19964;-70
2023/01/20 09:20:01;;;;;;;;;;;22.80;35.90;;;;;;5063715;28;19938;-70
2023/01/20 09:22:28;;;;;;;;;;;22.80;35.90;;;;;;5064349;28;20047;-67
2023/01/20 09:24:55;;;;;;;;;;;22.80;35.80;;;;;;5059318;28;19929;-68
2023/01/20 09:27:22;;;;;;;;;;;22.80;35.70;;;;;;5059954;28;19927;-67
2023/01/20 09:29:49;;;;;;;;;;;22.90;35.60;;;;;;5058425;28;20064;-66
2023/01/20 09:32:16;;;;;;;;;;;22.90;35.60;;;;;;5061801;28;19931;-66
2023/01/20 09:34:43;;;;;;;;;;;22.90;35.50;;;;;;5064811;28;20011;-65
2023/01/20 09:46:11;;;;;;;;;;;23.00;35.20;;;;;;5060064;28;20069;-70
2023/01/20 09:54:39;;;;;;;;;;;23.00;35.70;;;;;;5064743;28;19938;-74
2023/01/20 09:57:07;;;;;;;;;;;23.00;35.70;;;;;;5057071;28;19967;-70
2023/01/20 09:59:36;;;;;;;;;;;23.00;35.50;;;;;;5059093;28;19926;-70
2023/01/20 10:02:06;;;;;;;;;;;23.00;35.40;;;;;;5060822;28;20022;-68
2023/01/20 10:04:40;;;;;;;;;;;23.10;35.30;;;;;;5060561;28;19997;-78
2023/01/20 10:07:22;;;;;;;;;;;23.10;35.30;;;;;;5062365;28;19995;-70
2023/01/20 10:09:59;;;;;;;;;;;23.10;35.70;;;;;;5060515;28;19943;-66
2023/01/20 10:13:35;;;;;;;19.15;6.45;;;23.10;35.30;;;;;;5070512;27;20507;-77
2023/01/20 10:16:11;;;;;;;13.52;6.03;;;23.20;36.00;;;;;;5055130;28;20147;-68
2023/01/20 10:18:55;;;;;;;13.48;5.72;;;23.20;35.90;;;;;;5055976;28;20571;-68
2023/01/20 10:21:36;;;;;;;10.70;5.15;;;23.30;35.90;;;;;;5052383;28;20782;-70
2023/01/20 10:24:12;;;;;;;14.40;5.88;;;23.30;35.80;;;;;;5052524;28;20136;-72
2023/01/20 10:27:00;;;;;;;11.35;5.43;;;23.30;36.00;;;;;;5058643;28;20123;-69
2023/01/20 10:29:36;;;;;;;9.80;5.45;;;23.30;36.00;;;;;;5054814;28;20048;-67
2023/01/20 10:32:32;;;;;;;13.85;5.10;;;23.30;36.00;;;;;;5057118;28;20060;-64
2023/01/20 10:35:09;;;;;;;12.48;5.70;;;23.30;36.10;;;;;;5052286;28;20053;-68
2023/01/20 10:37:37;;;;;;;8.48;5.15;;;23.30;36.70;;;;;;5054520;28;20127;-70
2023/01/20 10:40:43;;;;;;;10.93;5.40;;;23.30;36.10;;;;;;5056928;28;20147;-68
2023/01/20 10:43:14;;;;;;;16.15;5.53;;;23.30;36.10;;;;;;5058781;28;20171;-66
2023/01/20 10:46:21;;;;;;;14.07;5.07;;;23.30;36.10;;;;;;5054060;28;20099;-67
2023/01/20 10:49:09;;;;;;;13.90;5.60;;;23.30;36.10;;;;;;5055172;28;20057;-68
2023/01/20 10:51:50;;;;;;;12.98;5.78;;;23.30;36.00;;;;;;5057384;28;20140;-67
2023/01/20 10:54:40;;;;;;;13.55;6.22;;;23.30;36.00;;;;;;5055780;28;20053;-71
2023/01/20 10:57:13;;;;;;;15.88;5.72;;;23.30;36.00;;;;;;5056774;28;20052;-65
2023/01/20 10:59:54;;;;;;;14.55;6.72;;;23.40;35.90;;;;;;5057603;28;20045;-69
2023/01/20 11:02:26;;;;;;;12.30;5.07;;;23.40;35.70;;;;;;5058050;28;20080;-67
2023/01/20 11:05:14;;;;;;;13.15;6.45;;;23.40;35.40;;;;;;5053881;28;20127;-67
2023/01/20 11:07:43;;;;;;;9.70;4.75;;;23.40;35.30;;;;;;5061118;28;20143;-66
2023/01/20 11:10:19;;;;;;;10.98;4.80;;;23.40;35.30;;;;;;5054199;28;20126;-67
2023/01/20 11:12:53;;;;;;;11.15;6.10;;;23.40;35.30;;;;;;5056266;28;20079;-66
2023/01/20 11:15:25;;;;;;;11.90;4.68;;;23.30;35.10;;;;;;5058900;28;20132;-68
2023/01/20 11:18:20;;;;;;;20.73;5.10;;;23.30;35.10;;;;;;5053842;28;20068;-71
2023/01/20 11:20:55;;;;;;;8.95;4.32;;;23.30;35.40;;;;;;5060348;28;20051;-66
2023/01/20 11:23:37;;;;;;;12.23;5.00;;;23.30;35.90;;;;;;5050628;28;20083;-68
2023/01/20 11:26:16;;;;;;;15.52;5.35;;;23.30;36.20;;;;;;5043682;28;20099;-67
2023/01/20 11:28:58;;;;;;;13.82;5.63;;;23.30;36.40;;;;;;5045227;28;20567;-66
2023/01/20 11:31:53;;;;;;;15.50;6.32;;;23.30;36.10;;;;;;5043680;28;20087;-61
2023/01/20 11:34:28;;;;;;;16.17;6.50;;;23.30;35.70;;;;;;5042149;28;20489;-67
2023/01/20 11:37:24;;;;;;;18.20;6.90;;;23.40;35.60;;;;;;5041344;28;20510;-67
2023/01/20 11:40:00;;;;;;;17.23;7.65;;;23.40;35.60;;;;;;5043697;28;20044;-65
2023/01/20 11:42:40;;;;;;;19.63;7.85;;;23.40;36.00;;;;;;5040056;28;20049;-67
2023/01/20 11:45:33;;;;;;;23.23;9.23;;;23.40;36.10;;;;;;5046915;28;20053;-72
2023/01/20 11:48:18;;;;;;;24.30;8.77;;;23.40;36.20;;;;;;5025239;28;20488;-72
2023/01/20 11:50:49;;;;;;;33.13;10.50;;;23.40;36.20;;;;;;5044685;28;20059;-62
2023/01/20 11:53:26;;;;;;;31.30;9.82;;;23.40;36.20;;;;;;5043581;28;20053;-64
2023/01/20 11:56:01;;;;;;;25.45;10.68;;;23.40;36.20;;;;;;5041253;28;20103;-66
2023/01/20 11:58:32;;;;;;;28.15;10.80;;;23.50;36.20;;;;;;5042238;28;20144;-66
2023/01/20 12:01:04;;;;;;;29.05;9.63;;;23.50;36.10;;;;;;5039064;28;20075;-67
2023/01/20 12:04:03;;;;;;;36.88;12.27;;;23.50;36.10;;;;;;5046105;28;20048;-68
2023/01/20 12:06:35;;;;;;;33.15;10.57;;;23.50;36.10;;;;;;5042365;28;20118;-65
2023/01/20 12:09:09;;;;;;;34.28;11.05;;;23.50;36.10;;;;;;5043930;28;20138;-65
2023/01/20 12:11:49;;;;;;;26.48;9.63;;;23.50;36.10;;;;;;5041916;28;20075;-64
2023/01/20 12:14:30;;;;;;;30.67;11.33;;;23.60;36.10;;;;;;5043245;28;20144;-65
2023/01/20 12:17:20;;;;;;;27.85;10.13;;;23.60;36.20;;;;;;5043776;28;20049;-66
2023/01/20 12:20:20;;;;;;;31.40;10.52;;;23.60;36.30;;;;;;5044709;28;20053;-67
2023/01/20 12:23:00;;;;;;;27.03;11.00;;;23.60;36.20;;;;;;5043140;28;20045;-63
2023/01/20 12:25:31;;;;;;;31.38;11.05;;;23.60;36.10;;;;;;5042888;28;20057;-63
2023/01/20 12:28:21;;;;;;;33.97;13.07;;;23.60;36.00;;;;;;5048021;28;20522;-67
2023/01/20 12:30:59;;;;;;;41.55;14.65;;;23.60;35.90;;;;;;5043992;28;20087;-63
2023/01/20 12:33:34;;;;;;;42.88;15.60;;;23.60;35.90;;;;;;5044718;28;20115;-63
2023/01/20 12:36:41;;;;;;;48.20;15.15;;;23.60;35.80;;;;;;5043789;28;20076;-62
2023/01/20 12:39:40;;;;;;;35.50;14.75;;;23.60;35.70;;;;;;5044050;28;20084;-64
2023/01/20 12:42:47;;;;;;;44.05;15.20;;;23.60;35.70;;;;;;5044665;28;20441;-63
2023/01/20 12:45:54;;;;;;;40.70;15.40;;;23.60;35.90;;;;;;5043182;28;20138;-65
2023/01/20 12:48:51;;;;;;;57.92;18.52;;;23.60;36.10;;;;;;5042778;28;20387;-66
2023/01/20 12:51:38;;;;;;;62.08;21.90;;;23.60;36.30;;;;;;5047862;28;20051;-67
2023/01/20 12:54:44;;;;;;;68.32;21.60;;;23.70;36.50;;;;;;5039397;28;20056;-67
2023/01/20 12:57:42;;;;;;;66.72;23.77;;;23.70;36.40;;;;;;5037853;28;20416;-61
2023/01/20 13:00:42;;;;;;;71.68;23.08;;;23.70;36.30;;;;;;5031627;28;20053;-65
2023/01/20 13:03:40;;;;;;;68.80;23.30;;;23.70;36.30;;;;;;5041127;28;20049;-72
2023/01/20 13:06:37;;;;;;;65.35;22.02;;;23.70;36.30;;;;;;5038701;28;20143;-63
2023/01/20 13:09:39;;;;;;;60.47;19.05;;;23.70;36.40;;;;;;5041652;28;20440;-63
2023/01/20 13:12:39;;;;;;;57.75;19.15;;;23.70;36.30;;;;;;5041508;28;20047;-63
2023/01/20 13:15:27;;;;;;;53.35;20.17;;;23.70;36.30;;;;;;5044692;28;20421;-69
2023/01/20 13:18:23;;;;;;;60.10;18.90;;;23.70;36.10;;;;;;5042527;28;20057;-64
2023/01/20 13:20:54;;;;;;;54.70;18.60;;;23.70;36.30;;;;;;5041298;28;20509;-65
2023/01/20 13:23:25;;;;;;;47.85;16.83;;;23.60;36.10;;;;;;5041982;28;20241;-65
2023/01/20 13:25:54;;;;;;;49.50;17.52;;;23.60;35.80;;;;;;5059382;28;20155;-65
2023/01/20 13:28:25;;;;;;;53.47;17.08;;;23.60;35.50;;;;;;5050236;28;20447;-67
2023/01/20 13:30:54;;;;;;;45.20;15.90;;;23.50;35.30;;;;;;5048286;28;20045;-65
2023/01/20 13:33:37;;;;;;;43.27;14.97;;;23.50;35.20;;;;;;5046129;28;20052;-65
2023/01/20 13:36:20;;;;;;;44.03;15.25;;;23.50;35.20;;;;;;5050008;28;20128;-65
2023/01/20 13:39:09;;;;;;;34.15;12.82;;;23.40;35.20;;;;;;5055640;28;20095;-65
2023/01/20 13:41:49;;;;;;;34.25;13.32;;;23.40;35.30;;;;;;5043712;28;20573;-62
2023/01/20 13:44:35;;;;;;;35.42;12.75;;;23.30;35.40;;;;;;5041653;28;20049;-62
2023/01/20 13:47:06;;;;;;;28.42;11.05;;;23.30;35.60;;;;;;5041024;28;20073;-62
2023/01/20 13:49:52;;;;;;;28.58;11.30;;;23.30;35.90;;;;;;5041608;28;20121;-62
2023/01/20 13:52:58;;;;;;;29.95;11.85;;;23.20;36.10;;;;;;5044256;28;20052;-62
2023/01/20 13:55:50;;;;;;;26.95;9.95;;;23.20;36.40;;;;;;5041159;28;20044;-62
2023/01/20 13:58:33;;;;;;;25.48;9.57;;;23.10;36.60;;;;;;5030065;28;20053;-62
2023/01/20 14:01:03;;;;;;;24.38;9.63;;;23.10;36.70;;;;;;5042211;28;20466;-61
2023/01/20 14:03:33;;;;;;;23.20;8.57;;;23.10;36.70;;;;;;5037534;28;20647;-61
2023/01/20 14:06:17;;;;;;;26.88;9.00;;;23.10;37.10;;;;;;5044308;28;20075;-61
2023/01/20 14:08:47;;;;;;;23.90;8.38;;;23.10;37.20;;;;;;5041073;28;20051;-62
2023/01/20 14:11:20;;;;;;;22.85;8.18;;;23.00;37.10;;;;;;5040308;28;20587;-64
2023/01/20 14:13:54;;;;;;;18.88;7.80;;;23.10;37.10;;;;;;5040778;28;20037;-65
2023/01/20 14:16:36;;;;;;;18.95;7.80;;;23.10;37.00;;;;;;5040594;28;20103;-62
2023/01/20 14:19:26;;;;;;;14.15;6.50;;;23.00;36.80;;;;;;5040601;28;20049;-63
2023/01/20 14:22:02;;;;;;;19.13;7.03;;;23.00;36.90;;;;;;5040961;28;20041;-63
2023/01/20 14:24:35;;;;;;;16.15;6.90;;;23.00;37.60;;;;;;5045902;28;20080;-63
2023/01/20 14:27:21;;;;;;;15.55;6.68;;;23.00;38.90;;;;;;5046507;28;20124;-63
2023/01/20 14:29:51;;;;;;;17.08;7.03;;;23.00;39.80;;;;;;5044811;28;20511;-63
2023/01/20 14:32:22;;;;;;;15.75;6.40;;;22.90;39.70;;;;;;5042624;28;20041;-64